createdAt,value
2018-01-02T00:01:27.728Z,0.32
2018-01-02T00:03:54.546Z,0.50
2018-01-02T00:06:20.798Z,0.60
2018-01-02T00:08:47.010Z,0.40
2018-01-02T00:11:13.267Z,0.45
2018-01-02T00:13:39.880Z,1.00
2018-01-02T00:16:06.152Z,0.60
2018-01-02T00:18:32.391Z,0.40
2018-01-02T00:20:58.623Z,0.82
2018-01-02T00:23:24.872Z,0.37
2018-01-02T00:25:51.077Z,0.40
2018-01-02T00:28:17.304Z,0.35
2018-01-02T00:30:43.536Z,0.37
2018-01-02T00:33:09.780Z,0.30
2018-01-02T00:35:35.989Z,0.47
2018-01-02T00:38:02.211Z,0.30
2018-01-02T00:40:28.454Z,0.37
2018-01-02T00:42:54.675Z,0.30
2018-01-02T00:45:20.904Z,0.40
2018-01-02T00:47:47.735Z,0.40
2018-01-02T00:50:13.956Z,0.30
2018-01-02T00:52:40.199Z,0.40
2018-01-02T00:55:06.464Z,0.40
2018-01-02T00:57:32.732Z,0.40
2018-01-02T00:59:58.941Z,0.40
2018-01-02T01:02:25.168Z,0.62
2018-01-02T01:04:51.773Z,0.40
2018-01-02T01:07:18.034Z,0.40
2018-01-02T01:09:44.250Z,0.35
2018-01-02T01:12:10.450Z,0.40
2018-01-02T01:14:36.675Z,0.30
2018-01-02T01:17:02.886Z,0.40
2018-01-02T01:19:29.104Z,0.40
2018-01-02T01:21:55.326Z,0.50
2018-01-02T01:24:21.564Z,0.50
2018-01-02T01:26:47.798Z,0.30
2018-01-02T01:29:14.044Z,0.30
2018-01-02T01:31:40.281Z,0.40
2018-01-02T01:34:06.502Z,0.30
2018-01-02T01:36:32.733Z,0.30
2018-01-02T01:38:58.979Z,0.30
2018-01-02T01:41:25.210Z,0.40
2018-01-02T01:43:51.407Z,0.30
2018-01-02T01:46:17.672Z,0.50
2018-01-02T01:48:54.165Z,0.30
2018-01-02T01:51:20.421Z,0.52
2018-01-02T01:53:46.649Z,0.62
2018-01-02T01:56:12.874Z,0.60
2018-01-02T01:58:39.964Z,0.50
2018-01-02T02:01:06.183Z,0.47
2018-01-02T02:03:32.407Z,0.40
2018-01-02T02:05:58.620Z,0.40
2018-01-02T02:08:24.869Z,0.40
2018-01-02T02:10:51.093Z,0.50
2018-01-02T02:13:17.331Z,0.65
2018-01-02T02:15:43.520Z,0.70
2018-01-02T02:18:09.740Z,0.60
2018-01-02T02:20:35.955Z,0.90
2018-01-02T02:23:02.505Z,0.60
2018-01-02T02:25:28.726Z,0.50
2018-01-02T02:27:54.947Z,0.70
2018-01-02T02:30:21.201Z,0.77
2018-01-02T02:32:47.421Z,0.50
2018-01-02T02:35:13.667Z,0.70
2018-01-02T02:37:40.541Z,0.60
2018-01-02T02:40:06.752Z,0.60
2018-01-02T02:42:32.989Z,0.80
2018-01-02T02:44:59.215Z,0.70
2018-01-02T02:47:25.464Z,0.75
2018-01-02T02:49:51.664Z,0.60
2018-01-02T02:52:17.890Z,0.62
2018-01-02T02:54:44.164Z,1.10
2018-01-02T02:57:10.405Z,0.80
2018-01-02T02:59:36.627Z,1.08
2018-01-02T03:02:02.880Z,1.20
2018-01-02T03:04:29.098Z,0.70
2018-01-02T03:06:55.308Z,1.02
2018-01-02T03:09:21.524Z,1.00
2018-01-02T03:11:47.756Z,0.77
2018-01-02T03:14:13.958Z,1.40
2018-01-02T03:16:40.183Z,0.80
2018-01-02T03:19:06.429Z,0.80
2018-01-02T03:21:32.664Z,1.55
2018-01-02T03:23:58.889Z,2.80
2018-01-02T03:26:25.091Z,1.80
2018-01-02T03:28:51.864Z,2.50
2018-01-02T03:31:18.420Z,1.90
2018-01-02T03:33:44.693Z,1.50
2018-01-02T03:36:10.955Z,1.73
2018-01-02T03:38:39.320Z,1.08
2018-01-02T03:41:05.553Z,1.10
2018-01-02T03:43:31.780Z,1.12
2018-01-02T03:45:57.973Z,0.88
2018-01-02T03:48:24.560Z,1.00
2018-01-02T03:50:50.787Z,0.80
2018-01-02T03:53:16.995Z,1.02
2018-01-02T03:55:43.238Z,3.05
2018-01-02T03:58:09.461Z,4.97
2018-01-02T04:00:35.688Z,3.90
2018-01-02T04:03:01.902Z,3.25
2018-01-02T04:05:28.154Z,2.33
2018-01-02T04:07:54.364Z,1.27
2018-01-02T04:10:20.561Z,0.90
2018-01-02T04:12:47.065Z,1.10
2018-01-02T04:15:13.306Z,0.80
2018-01-02T04:17:39.500Z,0.95
2018-01-02T04:20:05.728Z,1.05
2018-01-02T04:22:31.968Z,1.42
2018-01-02T04:24:58.153Z,1.25
2018-01-02T04:27:24.760Z,1.02
2018-01-02T04:29:50.947Z,1.20
2018-01-02T04:32:17.732Z,2.42
2018-01-02T04:34:43.936Z,3.25
2018-01-02T04:37:10.142Z,1.98
2018-01-02T04:39:36.370Z,2.65
2018-01-02T04:42:02.584Z,2.70
2018-01-02T04:44:28.818Z,5.35
2018-01-02T04:46:55.065Z,4.18
2018-01-02T04:49:21.284Z,3.72
2018-01-02T04:51:48.132Z,4.75
2018-01-02T04:54:14.357Z,6.07
2018-01-02T04:56:40.600Z,6.53
2018-01-02T04:59:06.796Z,4.78
2018-01-02T05:01:33.015Z,5.87
2018-01-02T05:03:59.601Z,5.55
2018-01-02T05:06:25.838Z,4.90
2018-01-02T05:08:52.053Z,3.58
2018-01-02T05:11:18.237Z,3.35
2018-01-02T05:13:44.509Z,2.40
2018-01-02T05:16:10.721Z,4.10
2018-01-02T05:18:36.944Z,4.40
2018-01-02T05:21:03.128Z,5.50
2018-01-02T05:23:29.762Z,2.55
2018-01-02T05:25:56.794Z,2.53
2018-01-02T05:28:23.008Z,3.20
2018-01-02T05:30:49.217Z,3.40
2018-01-02T05:33:15.431Z,3.72
2018-01-02T05:35:41.657Z,4.25
2018-01-02T05:38:07.876Z,4.78
2018-01-02T05:40:34.105Z,4.80
2018-01-02T05:43:00.345Z,3.85
2018-01-02T05:45:26.599Z,4.82
2018-01-02T05:47:52.803Z,4.05
2018-01-02T05:50:19.026Z,2.95
2018-01-02T05:52:45.940Z,3.50
2018-01-02T05:55:12.568Z,3.42
2018-01-02T05:57:39.147Z,2.25
2018-01-02T06:00:05.370Z,1.90
2018-01-02T06:02:31.621Z,2.40
2018-01-02T06:04:57.833Z,1.95
2018-01-02T06:07:24.048Z,2.67
2018-01-02T06:09:51.278Z,2.12
2018-01-02T06:12:17.861Z,2.00
2018-01-02T06:14:44.063Z,2.35
2018-01-02T06:17:10.298Z,1.35
2018-01-02T06:19:36.535Z,49.80
2018-01-02T06:22:02.762Z,59.65
2018-01-02T06:24:29.000Z,25.67
2018-01-02T06:26:55.209Z,27.50
2018-01-02T06:29:21.507Z,28.20
2018-01-02T06:31:47.719Z,39.25
2018-01-02T06:34:13.936Z,17.65
2018-01-02T06:36:40.181Z,21.60
2018-01-02T06:39:06.407Z,24.05
2018-01-02T06:41:32.641Z,41.95
2018-01-02T06:43:58.896Z,32.10
2018-01-02T06:46:25.136Z,24.55
2018-01-02T06:48:51.375Z,13.60
2018-01-02T06:51:17.616Z,73.40
2018-01-02T06:53:43.811Z,12.18
2018-01-02T06:56:10.006Z,18.87
2018-01-02T06:58:36.228Z,88.65
2018-01-02T07:01:02.450Z,24.12
2018-01-02T07:03:28.682Z,31.00
2018-01-02T07:05:54.910Z,24.77
2018-01-02T07:08:21.115Z,20.52
2018-01-02T07:10:47.350Z,44.42
2018-01-02T07:13:13.564Z,28.48
2018-01-02T07:15:40.733Z,23.08
2018-01-02T07:18:06.973Z,25.10
2018-01-02T07:20:33.226Z,26.25
2018-01-02T07:22:59.821Z,35.58
2018-01-02T07:25:26.052Z,38.72
2018-01-02T07:27:52.285Z,21.73
2018-01-02T07:30:18.519Z,23.58
2018-01-02T07:32:44.749Z,28.90
2018-01-02T07:35:10.961Z,35.28
2018-01-02T07:37:37.190Z,34.05
2018-01-02T07:40:03.405Z,23.12
2018-01-02T07:42:29.615Z,64.65
2018-01-02T07:44:55.853Z,36.50
2018-01-02T07:47:22.068Z,54.60
2018-01-02T07:49:48.276Z,26.55
2018-01-02T07:52:14.499Z,33.30
2018-01-02T07:54:40.787Z,28.55
2018-01-02T07:57:07.000Z,31.27
2018-01-02T07:59:33.231Z,23.33
2018-01-02T08:01:59.465Z,28.75
2018-01-02T08:04:25.680Z,25.58
2018-01-02T08:06:51.908Z,37.58
2018-01-02T08:09:18.816Z,34.17
2018-01-02T08:11:45.050Z,30.37
2018-01-02T08:14:11.288Z,25.73
2018-01-02T08:16:37.580Z,43.72
2018-01-02T08:19:03.808Z,36.03
2018-01-02T08:21:30.015Z,48.00
2018-01-02T08:23:57.038Z,51.47
2018-01-02T08:26:23.243Z,34.95
2018-01-02T08:28:49.491Z,38.40
2018-01-02T08:31:15.724Z,33.63
2018-01-02T08:33:41.981Z,23.23
2018-01-02T08:36:08.184Z,18.27
2018-01-02T08:38:35.314Z,28.00
2018-01-02T08:41:01.551Z,14.40
2018-01-02T08:43:27.778Z,35.70
2018-01-02T08:45:54.020Z,10.20
2018-01-02T08:48:20.220Z,45.15
2018-01-02T08:50:46.435Z,15.05
2018-01-02T08:53:12.662Z,9.30
2018-01-02T08:55:38.909Z,9.02
2018-01-02T08:58:05.165Z,9.68
2018-01-02T09:00:31.380Z,8.70
2018-01-02T09:02:57.624Z,9.93
2018-01-02T09:05:23.864Z,8.02
2018-01-02T09:07:50.075Z,13.15
2018-01-02T09:10:16.304Z,16.10
2018-01-02T09:12:46.491Z,16.92
2018-01-02T09:15:13.376Z,34.25
2018-01-02T09:17:39.623Z,36.17
2018-01-02T09:20:05.874Z,14.45
2018-01-02T09:22:32.144Z,30.60
2018-01-02T09:24:58.374Z,24.33
2018-01-02T09:27:24.653Z,35.70
2018-01-02T09:29:51.268Z,25.98
2018-01-02T09:32:17.496Z,42.10
2018-01-02T09:34:43.767Z,31.25
2018-01-02T09:37:10.025Z,46.70
2018-01-02T09:39:37.141Z,26.27
2018-01-02T09:42:04.179Z,19.30
2018-01-02T09:44:30.424Z,54.97
2018-01-02T09:46:56.680Z,111.43
2018-01-02T09:49:22.912Z,2.58
2018-01-02T09:51:49.152Z,1.85
2018-01-02T09:54:15.421Z,1.80
2018-01-02T09:56:41.650Z,1.42
2018-01-02T09:59:07.908Z,1.02
2018-01-02T10:01:34.796Z,1.90
2018-01-02T10:04:01.065Z,2.33
2018-01-02T10:06:27.293Z,1.90
2018-01-02T10:08:53.556Z,2.22
2018-01-02T10:11:19.777Z,2.20
2018-01-02T10:13:46.057Z,3.35
2018-01-02T10:16:12.654Z,1.50
2018-01-02T10:18:38.903Z,3.33
2018-01-02T10:21:05.924Z,1.62
2018-01-02T10:23:32.154Z,2.08
2018-01-02T10:25:58.375Z,2.10
2018-01-02T10:28:26.190Z,2.45
2018-01-02T10:30:52.796Z,3.25
2018-01-02T10:33:19.033Z,2.37
2018-01-02T10:35:45.296Z,2.20
2018-01-02T10:38:11.548Z,2.28
2018-01-02T10:40:37.773Z,3.42
2018-01-02T10:43:04.019Z,3.30
2018-01-02T10:45:30.346Z,1.73
2018-01-02T10:47:56.590Z,2.47
2018-01-02T10:50:22.790Z,3.55
2018-01-02T10:52:49.068Z,1.70
2018-01-02T10:55:15.303Z,2.10
2018-01-02T10:57:41.943Z,1.65
2018-01-02T11:00:08.223Z,1.50
2018-01-02T11:02:34.451Z,1.60
2018-01-02T11:05:00.710Z,0.95
2018-01-02T11:07:26.949Z,1.90
2018-01-02T11:09:53.584Z,1.10
2018-01-02T11:12:26.386Z,1.92
2018-01-02T11:14:52.630Z,1.48
2018-01-02T11:17:18.920Z,1.25
2018-01-02T11:19:45.174Z,1.60
2018-01-02T11:22:11.440Z,1.40
2018-01-02T11:24:37.685Z,1.30
2018-01-02T11:27:03.968Z,1.85
2018-01-02T11:29:30.231Z,1.20
2018-01-02T11:31:57.090Z,1.15
2018-01-02T11:34:23.332Z,0.85
2018-01-02T11:36:49.553Z,1.42
2018-01-02T11:39:15.836Z,1.08
2018-01-02T11:41:42.120Z,1.65
2018-01-02T11:44:08.324Z,1.58
2018-01-02T11:46:34.608Z,1.30
2018-01-02T11:49:00.850Z,1.20
2018-01-02T11:51:27.074Z,1.23
2018-01-02T11:53:54.286Z,1.50
2018-01-02T11:56:20.903Z,1.27
2018-01-02T11:58:47.121Z,1.33
2018-01-02T12:01:13.353Z,1.20
2018-01-02T12:03:39.628Z,1.23
2018-01-02T12:06:05.852Z,1.65
2018-01-02T12:08:32.447Z,1.35
2018-01-02T12:10:58.639Z,1.65
2018-01-02T12:13:25.714Z,1.77
2018-01-02T12:15:51.981Z,1.20
2018-01-02T12:18:18.565Z,2.90
2018-01-02T12:20:44.827Z,1.40
2018-01-02T12:23:11.065Z,1.52
2018-01-02T12:25:37.336Z,1.35
2018-01-02T12:28:03.577Z,1.02
2018-01-02T12:30:29.817Z,1.37
2018-01-02T12:32:56.052Z,1.12
2018-01-02T12:35:22.323Z,1.67
2018-01-02T12:37:48.568Z,1.12
2018-01-02T12:40:14.863Z,1.35
2018-01-02T12:42:41.108Z,1.20
2018-01-02T12:45:07.720Z,1.50
2018-01-02T12:47:34.011Z,1.40
2018-01-02T12:50:01.701Z,1.98
2018-01-02T12:52:27.925Z,1.12
2018-01-02T12:54:54.189Z,1.40
2018-01-02T12:57:20.830Z,2.20
2018-01-02T12:59:47.881Z,1.40
2018-01-02T13:02:14.529Z,1.30
2018-01-02T13:04:40.791Z,0.95
2018-01-02T13:07:07.046Z,1.20
2018-01-02T13:09:33.275Z,1.40
2018-01-02T13:11:59.529Z,1.12
2018-01-02T13:14:26.138Z,1.45
2018-01-02T13:16:52.449Z,1.40
2018-01-02T13:19:18.703Z,1.40
2018-01-02T13:21:44.985Z,0.75
2018-01-02T13:24:11.242Z,1.10
2018-01-02T13:26:37.486Z,1.00
2018-01-02T13:29:04.729Z,0.85
2018-01-02T13:31:30.997Z,1.20
2018-01-02T13:33:57.258Z,1.58
2018-01-02T13:36:23.491Z,1.10
2018-01-02T13:38:49.752Z,1.23
2018-01-02T13:41:16.028Z,1.15
2018-01-02T13:43:42.264Z,1.45
2018-01-02T13:46:08.496Z,1.27
2018-01-02T13:48:34.786Z,0.95
2018-01-02T13:51:01.403Z,1.27
2018-01-02T13:53:27.625Z,3.47
2018-01-02T13:55:54.007Z,1.90
2018-01-02T13:58:20.273Z,1.30
2018-01-02T14:00:46.525Z,1.15
2018-01-02T14:03:12.784Z,1.15
2018-01-02T14:05:39.025Z,1.30
2018-01-02T14:08:05.296Z,1.48
2018-01-02T14:10:31.558Z,1.83
2018-01-02T14:12:57.796Z,1.90
2018-01-02T14:15:24.035Z,2.10
2018-01-02T14:17:50.282Z,2.37
2018-01-02T14:20:16.596Z,2.17
2018-01-02T14:22:42.876Z,2.75
2018-01-02T14:25:09.168Z,2.12
2018-01-02T14:27:35.443Z,1.77
2018-01-02T14:30:01.720Z,1.92
2018-01-02T14:32:28.010Z,1.62
2018-01-02T14:34:54.241Z,1.75
2018-01-02T14:37:20.510Z,1.83
2018-01-02T14:39:46.746Z,2.42
2018-01-02T14:42:13.015Z,1.58
2018-01-02T14:44:40.181Z,1.55
2018-01-02T14:47:06.439Z,1.90
2018-01-02T14:49:32.656Z,1.80
2018-01-02T14:51:58.945Z,2.45
2018-01-02T14:54:25.191Z,1.83
2018-01-02T14:56:51.833Z,2.33
2018-01-02T14:59:18.445Z,3.37
2018-01-02T15:01:44.695Z,2.15
2018-01-02T15:04:11.344Z,2.42
2018-01-02T15:06:37.949Z,2.47
2018-01-02T15:09:04.248Z,2.12
2018-01-02T15:11:30.529Z,2.17
2018-01-02T15:13:56.791Z,1.95
2018-01-02T15:16:23.094Z,2.03
2018-01-02T15:18:49.779Z,3.47
2018-01-02T15:21:16.622Z,2.05
2018-01-02T15:23:42.888Z,2.30
2018-01-02T15:26:09.210Z,3.12
2018-01-02T15:28:35.462Z,3.30
2018-01-02T15:31:02.169Z,2.37
2018-01-02T15:33:28.409Z,3.53
2018-01-02T15:35:54.683Z,2.80
2018-01-02T15:38:21.008Z,3.60
2018-01-02T15:40:48.075Z,6.25
2018-01-02T15:43:14.328Z,5.22
2018-01-02T15:45:40.586Z,6.85
2018-01-02T15:48:06.889Z,4.75
2018-01-02T15:50:33.138Z,3.30
2018-01-02T15:52:59.777Z,4.40
2018-01-02T15:55:26.453Z,4.87
2018-01-02T15:57:52.713Z,3.92
2018-01-02T16:00:19.078Z,2.75
2018-01-02T16:02:45.703Z,4.12
2018-01-02T16:05:12.039Z,3.90
2018-01-02T16:07:38.706Z,4.28
2018-01-02T16:10:04.979Z,4.00
2018-01-02T16:12:31.250Z,3.28
2018-01-02T16:14:57.724Z,2.83
2018-01-02T16:17:24.064Z,2.95
2018-01-02T16:19:50.372Z,5.00
2018-01-02T16:22:16.961Z,5.40
2018-01-02T16:24:43.210Z,5.65
2018-01-02T16:27:09.866Z,4.18
2018-01-02T16:29:36.144Z,4.07
2018-01-02T16:32:02.438Z,3.60
2018-01-02T16:34:28.739Z,4.03
2018-01-02T16:36:55.450Z,2.87
2018-01-02T16:39:21.713Z,3.10
2018-01-02T16:41:47.971Z,3.45
2018-01-02T16:44:15.258Z,3.28
2018-01-02T16:46:41.574Z,2.90
2018-01-02T16:49:07.878Z,4.50
2018-01-02T16:51:34.221Z,4.90
2018-01-02T16:54:00.480Z,5.18
2018-01-02T16:56:26.765Z,4.05
2018-01-02T16:58:52.989Z,5.57
2018-01-02T17:01:19.830Z,6.37
2018-01-02T17:03:46.076Z,7.45
2018-01-02T17:06:13.116Z,8.30
2018-01-02T17:08:39.437Z,8.88
2018-01-02T17:11:05.679Z,6.15
2018-01-02T17:13:31.938Z,4.60
2018-01-02T17:15:58.206Z,5.75
2018-01-02T17:18:24.552Z,8.38
2018-01-02T17:20:50.915Z,8.10
2018-01-02T17:23:17.214Z,6.12
2018-01-02T17:25:43.484Z,5.97
2018-01-02T17:28:09.725Z,4.00
2018-01-02T17:30:36.008Z,4.37
2018-01-02T17:33:02.339Z,4.93
2018-01-02T17:35:28.641Z,4.12
2018-01-02T17:37:54.892Z,4.90
2018-01-02T17:40:21.208Z,6.00
2018-01-02T17:42:47.466Z,6.37
2018-01-02T17:45:13.768Z,4.85
2018-01-02T17:47:40.047Z,4.68
2018-01-02T17:50:06.302Z,5.87
2018-01-02T17:52:33.876Z,3.95
2018-01-02T17:55:01.117Z,4.90
2018-01-02T17:57:27.384Z,4.53
2018-01-02T17:59:53.630Z,5.53
2018-01-02T18:02:19.916Z,4.43
2018-01-02T18:04:46.210Z,4.82
2018-01-02T18:07:12.507Z,4.20
2018-01-02T18:09:38.872Z,4.15
2018-01-02T18:12:05.154Z,4.72
2018-01-02T18:14:32.355Z,4.50
2018-01-02T18:16:58.616Z,4.28
2018-01-02T18:19:24.906Z,4.93
2018-01-02T18:21:51.177Z,4.40
2018-01-02T18:24:17.498Z,5.20
2018-01-02T18:26:43.769Z,4.43
2018-01-02T18:29:10.051Z,5.07
2018-01-02T18:31:36.334Z,7.35
2018-01-02T18:34:02.629Z,5.87
2018-01-02T18:36:28.879Z,4.47
2018-01-02T18:38:55.160Z,5.75
2018-01-02T18:41:21.898Z,5.03
2018-01-02T18:43:48.536Z,4.47
2018-01-02T18:46:14.858Z,3.80
2018-01-02T18:48:41.181Z,4.68
2018-01-02T18:51:07.477Z,6.03
2018-01-02T18:53:33.780Z,7.95
2018-01-02T18:56:00.065Z,11.25
2018-01-02T18:58:26.385Z,12.60
2018-01-02T19:00:52.676Z,15.00
2018-01-02T19:03:19.020Z,15.80
2018-01-02T19:05:45.297Z,18.85
2018-01-02T19:08:12.020Z,16.15
2018-01-02T19:10:38.328Z,17.52
2018-01-02T19:13:04.640Z,13.25
2018-01-02T19:15:30.930Z,12.95
2018-01-02T19:17:57.243Z,6.47
2018-01-02T19:20:23.542Z,4.85
2018-01-02T19:22:50.823Z,6.45
2018-01-02T19:25:17.168Z,5.15
2018-01-02T19:27:43.847Z,6.30
2018-01-02T19:30:10.169Z,4.65
2018-01-02T19:32:36.445Z,4.57
2018-01-02T19:35:02.754Z,5.05
2018-01-02T19:37:29.038Z,5.55
2018-01-02T19:39:55.373Z,5.40
2018-01-02T19:42:21.676Z,7.43
2018-01-02T19:44:47.998Z,5.80
2018-01-02T19:47:14.296Z,5.60
2018-01-02T19:49:40.600Z,5.75
2018-01-02T19:52:06.915Z,4.85
2018-01-02T19:54:33.255Z,5.95
2018-01-02T19:56:59.668Z,4.53
2018-01-02T19:59:25.929Z,5.37
2018-01-02T20:01:52.300Z,4.43
2018-01-02T20:04:18.657Z,3.95
2018-01-02T20:06:44.953Z,3.92
2018-01-02T20:09:12.817Z,3.60
2018-01-02T20:11:39.187Z,3.60
2018-01-02T20:14:05.564Z,3.70
2018-01-02T20:16:31.877Z,4.00
2018-01-02T20:18:58.568Z,4.68
2018-01-02T20:21:25.477Z,4.30
2018-01-02T20:23:51.773Z,4.35
2018-01-02T20:26:18.128Z,5.37
2018-01-02T20:28:44.405Z,4.97
2018-01-02T20:31:10.818Z,4.85
2018-01-02T20:33:37.170Z,6.05
2018-01-02T20:36:03.476Z,4.45
2018-01-02T20:38:29.808Z,3.45
2018-01-02T20:40:56.111Z,4.30
2018-01-02T20:43:22.495Z,4.05
2018-01-02T20:45:48.863Z,3.33
2018-01-02T20:48:15.617Z,3.30
2018-01-02T20:50:41.924Z,4.60
2018-01-02T20:53:08.225Z,5.87
2018-01-02T20:55:34.550Z,4.68
2018-01-02T20:58:00.871Z,4.47
2018-01-02T21:00:27.899Z,3.62
2018-01-02T21:02:54.225Z,3.78
2018-01-02T21:05:20.575Z,4.10
2018-01-02T21:07:47.849Z,3.47
2018-01-02T21:10:14.173Z,3.83
2018-01-02T21:12:40.551Z,4.00
2018-01-02T21:15:06.932Z,3.22
2018-01-02T21:17:33.281Z,3.58
2018-01-02T21:19:59.608Z,3.75
2018-01-02T21:22:25.952Z,3.40
2018-01-02T21:24:52.322Z,3.87
2018-01-02T21:27:18.663Z,3.30
2018-01-02T21:29:44.979Z,3.85
2018-01-02T21:32:11.301Z,3.53
2018-01-02T21:34:38.007Z,3.10
2018-01-02T21:37:04.264Z,3.78
2018-01-02T21:39:30.524Z,3.15
2018-01-02T21:41:56.876Z,2.65
2018-01-02T21:44:23.183Z,4.00
2018-01-02T21:46:49.462Z,5.62
2018-01-02T21:49:15.789Z,4.47
2018-01-02T21:51:42.074Z,3.92
2018-01-02T21:54:08.313Z,2.55
2018-01-02T21:56:34.619Z,4.75
2018-01-02T21:59:00.945Z,3.67
2018-01-02T22:01:27.262Z,3.17
2018-01-02T22:03:53.886Z,2.35
2018-01-02T22:06:20.530Z,2.90
2018-01-02T22:08:47.156Z,2.97
2018-01-02T22:11:13.998Z,1.60
2018-01-02T22:13:40.262Z,1.50
2018-01-02T22:16:06.508Z,1.62
2018-01-02T22:18:32.736Z,1.70
2018-01-02T22:20:59.339Z,1.45
2018-01-02T22:23:25.619Z,1.02
2018-01-02T22:25:51.930Z,1.70
2018-01-02T22:28:18.205Z,1.20
2018-01-02T22:30:44.495Z,1.58
2018-01-02T22:33:10.849Z,2.17
2018-01-02T22:35:37.126Z,1.77
2018-01-02T22:38:03.417Z,1.60
2018-01-02T22:40:29.728Z,1.85
2018-01-02T22:42:56.010Z,2.53
2018-01-02T22:45:23.144Z,2.42
2018-01-02T22:47:49.443Z,2.50
2018-01-02T22:50:15.676Z,1.50
2018-01-02T22:52:41.999Z,1.85
2018-01-02T22:55:08.253Z,1.75
2018-01-02T22:57:34.529Z,1.90
2018-01-02T23:00:00.808Z,1.33
2018-01-02T23:02:27.051Z,1.77
2018-01-02T23:04:53.689Z,1.67
2018-01-02T23:07:20.304Z,1.75
2018-01-02T23:09:46.556Z,1.20
2018-01-02T23:12:13.458Z,1.40
2018-01-02T23:14:39.704Z,1.85
2018-01-02T23:17:05.933Z,1.92
2018-01-02T23:19:32.737Z,1.10
2018-01-02T23:21:58.967Z,2.10
2018-01-02T23:24:25.716Z,1.45
2018-01-02T23:26:52.017Z,1.23
2018-01-02T23:29:19.232Z,1.40
2018-01-02T23:31:45.498Z,1.30
2018-01-02T23:34:11.786Z,1.40
2018-01-02T23:36:38.035Z,1.40
2018-01-02T23:39:04.705Z,1.35
2018-01-02T23:41:30.936Z,0.90
2018-01-02T23:43:57.188Z,1.30
2018-01-02T23:46:23.444Z,1.58
2018-01-02T23:48:49.706Z,1.25
2018-01-02T23:51:15.948Z,1.40
2018-01-02T23:53:43.174Z,1.58
2018-01-02T23:56:09.433Z,1.30
2018-01-02T23:58:35.661Z,1.08
